Time;durP1;ratioP1;P1;durP2;ratioP2;P2;SDS_P1;SDS_P2;PMS_P1;PMS_P2;Temp;Humidity;BMP_temperature;BMP_pressure;BME280_temperature;BME280_humidity;BME280_pressure;Samples;Min_cycle;Max_cycle;Signal;HPM_P1;HPM_P2
2023/03/05 00:01:34;;;;;;;8.25;2.50;;;;;;;4.26;100.00;102213.78;2615643;36;20035;-55
2023/03/05 00:04:04;;;;;;;8.48;2.15;;;;;;;4.32;100.00;102208.19;2615553;36;20062;-50
2023/03/05 00:06:33;;;;;;;7.03;1.75;;;;;;;4.30;100.00;102198.50;2615623;31;20039;-52
2023/03/05 00:09:02;;;;;;;8.10;1.83;;;;;;;4.20;100.00;102198.03;2615991;36;20042;-53
2023/03/05 00:11:32;;;;;;;3.80;1.47;;;;;;;4.12;100.00;102198.34;2615247;36;20058;-50
2023/03/05 00:14:05;;;;;;;7.53;2.08;;;;;;;4.13;100.00;102189.41;2615497;36;20064;-52
2023/03/05 00:16:35;;;;;;;7.63;1.70;;;;;;;4.01;100.00;102192.56;2615799;36;20114;-53
2023/03/05 00:19:04;;;;;;;7.07;1.85;;;;;;;3.96;100.00;102189.22;2614563;36;20419;-54
2023/03/05 00:21:34;;;;;;;5.20;1.52;;;;;;;3.84;100.00;102185.22;2615959;36;20033;-51
2023/03/05 00:24:04;;;;;;;4.40;1.48;;;;;;;3.73;100.00;102187.47;2613855;36;20049;-55
2023/03/05 00:26:33;;;;;;;5.32;1.30;;;;;;;3.50;100.00;102186.53;2614147;36;20033;-53
2023/03/05 00:29:04;;;;;;;2.85;1.00;;;;;;;3.32;100.00;102180.97;2614659;36;20038;-51
2023/03/05 00:31:34;;;;;;;5.80;1.10;;;;;;;3.28;100.00;102189.13;2615256;36;20555;-50
2023/03/05 00:34:04;;;;;;;5.05;0.95;;;;;;;3.31;100.00;102186.34;2614475;36;20037;-56
2023/03/05 00:36:34;;;;;;;5.45;1.20;;;;;;;3.31;100.00;102186.34;2615173;31;20565;-57
2023/03/05 00:39:02;;;;;;;3.92;1.13;;;;;;;3.31;100.00;102186.34;2615232;36;20035;-56
2023/03/05 00:41:30;;;;;;;3.30;1.48;;;;;;;3.28;100.00;102183.78;2615229;36;20058;-58
2023/03/05 00:43:59;;;;;;;4.00;1.20;;;;;;;3.32;100.00;102183.63;2614860;36;20042;-55
2023/03/05 00:46:30;;;;;;;1.75;0.73;;;;;;;3.41;100.00;102182.41;2615124;31;20049;-50
2023/03/05 00:48:58;;;;;;;5.35;1.20;;;;;;;3.44;100.00;102176.97;2615232;36;20656;-53
2023/03/05 00:51:27;;;;;;;7.90;1.30;;;;;;;3.49;100.00;102180.34;2615118;36;20041;-50
2023/03/05 00:53:56;;;;;;;3.03;1.35;;;;;;;3.46;100.00;102174.25;2615336;31;20154;-51
2023/03/05 00:56:25;;;;;;;5.50;1.05;;;;;;;3.50;100.00;102171.44;2615565;36;20126;-53
2023/03/05 00:58:54;;;;;;;6.15;1.35;;;;;;;3.55;100.00;102170.38;2614910;36;20145;-50
2023/03/05 01:01:23;;;;;;;4.97;1.35;;;;;;;3.52;100.00;102163.41;2614777;36;20173;-51
2023/03/05 01:03:55;;;;;;;3.35;1.00;;;;;;;3.57;100.00;102164.06;2615023;36;20405;-50
2023/03/05 01:06:23;;;;;;;4.65;1.10;;;;;;;3.55;100.00;102160.63;2615060;36;23396;-56
2023/03/05 01:08:52;;;;;;;5.80;1.50;;;;;;;3.65;100.00;102158.44;2614590;36;20045;-52
2023/03/05 01:11:20;;;;;;;2.65;1.38;;;;;;;3.69;100.00;102154.75;2613767;36;20812;-49
2023/03/05 01:13:48;;;;;;;5.32;1.10;;;;;;;3.75;100.00;102153.66;2614271;36;20046;-53
2023/03/05 01:16:17;;;;;;;4.93;1.27;;;;;;;3.80;100.00;102157.88;2614088;31;20428;-53
2023/03/05 01:18:45;;;;;;;4.53;1.33;;;;;;;3.73;100.00;102144.88;2614841;36;20034;-56
2023/03/05 01:21:16;;;;;;;4.40;1.17;;;;;;;3.79;100.00;102145.47;2615373;36;20030;-51
2023/03/05 01:23:44;;;;;;;8.32;1.60;;;;;;;3.78;100.00;102141.06;2615622;36;20027;-49
2023/03/05 01:26:12;;;;;;;4.68;1.60;;;;;;;3.76;100.00;102140.28;2614547;36;20110;-52
2023/03/05 01:28:41;;;;;;;5.00;1.38;;;;;;;3.83;100.00;102136.44;2615363;36;20026;-51
2023/03/05 01:31:10;;;;;;;3.65;1.33;;;;;;;3.91;100.00;102137.94;2615584;36;20455;-54
2023/03/05 01:33:38;;;;;;;4.05;1.25;;;;;;;3.91;100.00;102133.47;2614959;36;20053;-52
2023/03/05 01:36:12;;;;;;;3.75;1.50;;;;;;;3.93;100.00;102130.72;2614475;36;20069;-57
2023/03/05 01:38:43;;;;;;;8.23;2.15;;;;;;;3.91;100.00;102124.63;2615542;36;20043;-50
2023/03/05 01:41:12;;;;;;;5.85;1.67;;;;;;;3.84;100.00;102127.53;2615587;36;20431;-51
2023/03/05 01:43:41;;;;;;;3.95;1.63;;;;;;;3.86;100.00;102120.34;2615328;36;20045;-49
2023/03/05 01:46:33;;;;;;;;;;;;;;;3.87;100.00;102115.88;2615559;36;20041;-52
2023/03/05 01:49:27;;;;;;;5.22;1.42;;;;;;;3.77;100.00;102110.06;2615260;36;20034;-56
2023/03/05 01:52:02;;;;;;;6.57;1.63;;;;;;;3.82;100.00;102108.06;2615329;36;20046;-53
2023/03/05 01:54:36;;;;;;;3.22;1.08;;;;;;;3.84;100.00;102100.00;2615796;36;20035;-53
2023/03/05 01:57:10;;;;;;;6.47;1.42;;;;;;;3.69;100.00;102101.50;2615368;36;20042;-50
2023/03/05 01:59:40;;;;;;;7.78;1.50;;;;;;;3.70;100.00;102097.06;2615414;31;20551;-53
2023/03/05 02:02:09;;;;;;;7.57;1.50;;;;;;;3.68;100.00;102094.44;2615512;36;20037;-56
2023/03/05 02:04:44;;;;;;;6.28;1.83;;;;;;;3.75;100.00;102087.94;2614462;36;20084;-56
2023/03/05 02:07:15;;;;;;;4.88;1.40;;;;;;;3.77;100.00;102082.53;2615393;36;20026;-57
2023/03/05 02:09:46;;;;;;;5.50;1.95;;;;;;;3.89;100.00;102076.72;2615860;36;20042;-56
2023/03/05 02:12:16;;;;;;;3.88;1.30;;;;;;;3.86;100.00;102067.06;2615328;36;20543;-54
2023/03/05 02:14:47;;;;;;;6.75;1.17;;;;;;;3.83;100.00;102061.88;2616685;31;20038;-54
2023/03/05 02:17:17;;;;;;;8.68;1.60;;;;;;;3.79;100.00;102054.06;2615354;36;20038;-53
2023/03/05 02:19:49;;;;;;;;;;;;;;;3.73;100.00;102054.31;2615455;36;20577;-57
2023/03/05 02:22:23;;;;;;;5.93;1.70;;;;;;;3.72;100.00;102047.25;2615129;36;19970;-56
2023/03/05 02:24:52;;;;;;;7.22;2.00;;;;;;;3.66;100.00;102049.22;2615638;36;20041;-52
2023/03/05 02:27:24;;;;;;;8.63;1.73;;;;;;;3.73;100.00;102043.69;2615044;36;20066;-54
2023/03/05 02:29:54;;;;;;;9.13;1.60;;;;;;;3.74;100.00;102040.06;2615625;36;20023;-55
2023/03/05 02:32:22;;;;;;;3.53;1.05;;;;;;;3.73;100.00;102041.00;2615235;36;20038;-53
2023/03/05 02:34:50;;;;;;;6.65;1.58;;;;;;;3.75;100.00;102040.00;2615248;36;20038;-50
2023/03/05 02:37:21;;;;;;;8.85;1.50;;;;;;;3.78;100.00;102031.03;2615525;36;20039;-54
2023/03/05 02:39:49;;;;;;;5.78;1.42;;;;;;;3.78;100.00;102029.22;2615886;36;20057;-54
2023/03/05 02:42:18;;;;;;;5.93;2.17;;;;;;;3.79;100.00;102028.28;2615404;36;20027;-56
2023/03/05 02:44:46;;;;;;;8.85;1.63;;;;;;;3.80;100.00;102024.72;2616073;36;20035;-51
2023/03/05 02:47:15;;;;;;;10.13;1.70;;;;;;;3.76;100.00;102023.09;2616120;36;20022;-51
2023/03/05 02:49:43;;;;;;;7.53;1.67;;;;;;;3.82;100.00;102014.84;2616275;36;20065;-53
2023/03/05 02:52:11;;;;;;;3.88;1.33;;;;;;;3.82;100.00;102020.19;2616542;36;20041;-53
2023/03/05 02:54:42;;;;;;;4.22;1.20;;;;;;;3.74;100.00;102006.34;2615047;36;20031;-52
2023/03/05 02:57:10;;;;;;;3.63;1.50;;;;;;;3.74;100.00;102011.66;2616002;36;20034;-53
2023/03/05 02:59:39;;;;;;;6.85;1.45;;;;;;;3.68;100.00;101999.47;2616033;36;20030;-53
2023/03/05 03:02:07;;;;;;;6.97;1.70;;;;;;;3.80;100.00;102014.06;2615695;36;20038;-50
2023/03/05 03:04:35;;;;;;;8.32;2.00;;;;;;;3.75;100.00;102000.06;2615013;36;20045;-51
2023/03/05 03:07:04;;;;;;;4.10;1.35;;;;;;;3.66;100.00;101993.31;2616858;36;20423;-50
2023/03/05 03:09:32;;;;;;;7.45;1.30;;;;;;;3.73;100.00;101990.41;2612438;36;20050;-51
2023/03/05 03:12:03;;;;;;;5.70;1.30;;;;;;;3.75;100.00;102000.06;2614877;36;20030;-52
2023/03/05 03:14:37;;;;;;;6.63;1.83;;;;;;;3.79;100.00;101991.00;2613928;36;20034;-52
2023/03/05 03:17:06;;;;;;;7.25;1.60;;;;;;;3.82;100.00;101987.38;2616173;36;20062;-53
2023/03/05 03:19:34;;;;;;;4.43;1.40;;;;;;;3.76;100.00;101985.81;2615715;36;20026;-52
2023/03/05 03:22:02;;;;;;;6.25;1.30;;;;;;;3.89;100.00;101985.28;2616238;36;20038;-56
2023/03/05 03:24:32;;;;;;;4.60;1.75;;;;;;;3.87;100.00;101977.38;2615171;36;20033;-54
2023/03/05 03:27:03;;;;;;;7.28;1.42;;;;;;;3.77;100.00;101974.25;2615871;36;20046;-50
2023/03/05 03:29:32;;;;;;;6.65;1.35;;;;;;;3.82;100.00;101974.06;2615815;36;20027;-54
2023/03/05 03:32:01;;;;;;;6.15;1.60;;;;;;;3.77;100.00;101971.59;2615737;36;20026;-51
2023/03/05 03:34:29;;;;;;;3.47;1.20;;;;;;;3.78;100.00;101962.63;2614666;36;20034;-54
2023/03/05 03:36:57;;;;;;;6.00;1.90;;;;;;;3.81;100.00;101962.53;2616227;36;20571;-56
2023/03/05 03:39:26;;;;;;;5.20;1.40;;;;;;;3.73;100.00;101959.31;2615743;36;20041;-50
2023/03/05 03:41:55;;;;;;;7.78;1.70;;;;;;;3.78;100.00;101962.63;2615422;36;20034;-55
2023/03/05 03:44:26;;;;;;;;;;;;;;;3.84;100.00;101958.84;2615712;36;20065;-53
2023/03/05 03:46:54;;;;;;;8.75;1.75;;;;;;;3.80;100.00;101959.94;2616560;36;20541;-51
2023/03/05 03:49:25;;;;;;;6.00;1.50;;;;;;;3.75;100.00;101957.44;2615694;36;20155;-56
2023/03/05 03:51:56;;;;;;;8.02;1.45;;;;;;;3.74;100.00;101958.41;2616721;36;20427;-52
2023/03/05 03:54:26;;;;;;;5.35;1.42;;;;;;;3.79;100.00;101953.72;2616056;36;20042;-55
2023/03/05 03:56:54;;;;;;;5.75;1.70;;;;;;;3.80;100.00;101952.81;2615644;36;20045;-59
2023/03/05 03:59:22;;;;;;;7.07;1.60;;;;;;;3.81;100.00;101953.66;2615914;36;20072;-51
2023/03/05 04:01:53;;;;;;;9.05;1.77;;;;;;;3.71;100.00;101950.53;2616465;36;20551;-52
2023/03/05 04:04:22;;;;;;;6.13;1.38;;;;;;;3.81;100.00;101951.00;2614259;31;20034;-50
2023/03/05 04:06:50;;;;;;;3.80;1.08;;;;;;;3.92;100.00;101937.25;2616640;36;20567;-53
2023/03/05 04:09:18;;;;;;;4.70;1.02;;;;;;;3.67;100.00;101933.81;2616518;36;20042;-50
2023/03/05 04:11:47;;;;;;;3.92;1.13;;;;;;;3.72;100.00;101933.63;2616801;36;20409;-52
2023/03/05 04:14:15;;;;;;;6.65;1.50;;;;;;;3.76;100.00;101927.25;2615787;36;20030;-52
2023/03/05 04:16:43;;;;;;;6.65;1.80;;;;;;;3.73;100.00;101938.03;2616898;36;20577;-58
2023/03/05 04:19:14;;;;;;;10.57;1.98;;;;;;;3.71;100.00;101923.91;2615886;36;20034;-50
2023/03/05 04:21:42;;;;;;;6.88;1.60;;;;;;;3.70;100.00;101927.50;2616665;36;20034;-53
2023/03/05 04:24:11;;;;;;;3.55;1.38;;;;;;;3.71;100.00;101918.59;2616110;36;20034;-51
2023/03/05 04:26:39;;;;;;;6.47;1.45;;;;;;;3.73;100.00;101911.41;2615183;36;20034;-53
2023/03/05 04:29:07;;;;;;;6.63;1.50;;;;;;;3.65;100.00;101913.50;2616572;36;20034;-55
2023/03/05 04:31:36;;;;;;;3.58;1.35;;;;;;;3.57;100.00;101920.97;2617029;36;20094;-51
2023/03/05 04:34:04;;;;;;;4.33;1.30;;;;;;;3.50;100.00;101915.03;2614979;36;20041;-51
2023/03/05 04:36:35;;;;;;;2.55;1.30;;;;;;;3.50;100.00;101913.25;2615981;36;20035;-49
2023/03/05 04:39:04;;;;;;;4.10;1.40;;;;;;;3.58;100.00;101912.03;2616742;36;20038;-49
2023/03/05 04:41:32;;;;;;;4.57;1.70;;;;;;;3.48;100.00;101911.56;2616121;36;20038;-48
2023/03/05 04:44:01;;;;;;;3.30;1.35;;;;;;;3.36;100.00;101906.75;2616170;36;20030;-53
2023/03/05 04:46:29;;;;;;;3.92;1.75;;;;;;;3.36;100.00;101901.41;2615059;36;20023;-58
2023/03/05 04:48:59;;;;;;;6.28;1.33;;;;;;;3.37;100.00;101903.16;2615110;36;20045;-53
2023/03/05 04:51:28;;;;;;;4.13;1.20;;;;;;;3.36;100.00;101904.97;2616481;36;20038;-49
2023/03/05 04:53:59;;;;;;;5.90;1.60;;;;;;;3.36;100.00;101897.00;2615814;36;20031;-49
2023/03/05 04:56:27;;;;;;;7.50;2.15;;;;;;;3.33;100.00;101905.09;2615658;31;20053;-53
2023/03/05 04:58:55;;;;;;;6.57;1.85;;;;;;;3.37;100.00;101895.19;2616260;36;20034;-50
2023/03/05 05:01:24;;;;;;;6.45;1.70;;;;;;;3.24;100.00;101897.47;2616480;36;20565;-50
2023/03/05 05:03:52;;;;;;;6.38;1.70;;;;;;;3.19;100.00;101899.47;2615387;36;20042;-55
2023/03/05 05:06:20;;;;;;;3.55;1.73;;;;;;;3.17;100.00;101896.03;2616018;36;20069;-54
2023/03/05 05:08:49;;;;;;;8.23;1.98;;;;;;;3.10;100.00;101896.25;2615999;36;20049;-55
2023/03/05 05:11:19;;;;;;;9.00;1.73;;;;;;;3.21;100.00;101897.59;2614944;36;20043;-51
2023/03/05 05:13:48;;;;;;;8.73;1.98;;;;;;;3.19;100.00;101896.81;2615041;36;20030;-53
2023/03/05 05:16:17;;;;;;;5.90;1.80;;;;;;;3.17;100.00;101888.91;2615392;36;20046;-56
2023/03/05 05:18:45;;;;;;;3.78;1.52;;;;;;;3.17;100.00;101885.38;2615237;36;20066;-49
2023/03/05 05:21:17;;;;;;;6.55;1.70;;;;;;;3.12;100.00;101886.44;2616416;54;20046;-54
2023/03/05 05:23:46;;;;;;;4.13;1.42;;;;;;;3.09;100.00;101883.91;2615821;36;20030;-55
2023/03/05 05:26:15;;;;;;;5.38;1.45;;;;;;;3.08;100.00;101876.84;2614858;31;20037;-53
2023/03/05 05:28:46;;;;;;;6.90;1.60;;;;;;;3.17;100.00;101869.41;2615522;36;20038;-49
2023/03/05 05:31:16;;;;;;;8.85;2.00;;;;;;;3.11;100.00;101866.06;2615101;36;20471;-49
2023/03/05 05:33:45;;;;;;;5.00;1.80;;;;;;;3.09;100.00;101867.94;2615593;36;20135;-50
2023/03/05 05:36:16;;;;;;;4.75;1.80;;;;;;;3.18;100.00;101865.81;2616019;36;20045;-51
2023/03/05 05:38:45;;;;;;;9.27;2.28;;;;;;;3.21;100.00;101866.56;2616402;36;20455;-48
2023/03/05 05:41:16;;;;;;;4.45;1.80;;;;;;;3.11;100.00;101860.75;2615187;36;20563;-49
2023/03/05 05:43:47;;;;;;;5.63;2.20;;;;;;;3.22;100.00;101867.41;2616096;36;20381;-51
2023/03/05 05:46:21;;;;;;;7.63;2.13;;;;;;;3.24;100.00;101865.56;2615247;36;20034;-57
2023/03/05 05:48:50;;;;;;;5.38;2.00;;;;;;;3.34;100.00;101856.25;2614653;36;20022;-50
2023/03/05 05:51:20;;;;;;;4.95;2.13;;;;;;;3.28;100.00;101851.19;2615957;36;20038;-52
2023/03/05 05:53:49;;;;;;;3.17;1.85;;;;;;;3.26;100.00;101853.91;2614920;36;20042;-51
2023/03/05 05:56:18;;;;;;;4.43;2.08;;;;;;;3.28;100.00;101859.19;2616320;36;20417;-49
2023/03/05 05:58:50;;;;;;;6.70;2.55;;;;;;;3.27;100.00;101860.13;2616163;36;20030;-55
2023/03/05 06:01:21;;;;;;;5.20;3.13;;;;;;;3.33;100.00;101854.53;2615439;31;20039;-52
2023/03/05 06:03:49;;;;;;;4.75;2.63;;;;;;;3.36;100.00;101849.09;2615083;36;20030;-50
2023/03/05 06:06:21;;;;;;;10.32;2.90;;;;;;;3.31;100.00;101848.41;2615902;36;20042;-54
2023/03/05 06:08:50;;;;;;;8.32;3.72;;;;;;;3.23;100.00;101848.72;2614895;36;20027;-50
2023/03/05 06:11:19;;;;;;;6.47;3.50;;;;;;;3.26;100.00;101845.09;2616006;36;20035;-52
2023/03/05 06:13:51;;;;;;;8.90;3.57;;;;;;;3.36;100.00;101843.75;2615546;31;20041;-55
2023/03/05 06:16:22;;;;;;;11.80;3.88;;;;;;;3.44;100.00;101849.59;2614976;36;20038;-51
2023/03/05 06:18:50;;;;;;;7.88;3.75;;;;;;;3.37;100.00;101848.13;2614880;36;20031;-49
2023/03/05 06:21:20;;;;;;;8.65;3.90;;;;;;;3.38;100.00;101839.22;2615415;36;20037;-49
2023/03/05 06:23:50;;;;;;;8.52;4.45;;;;;;;3.42;100.00;101838.19;2615780;31;20038;-52
2023/03/05 06:26:19;;;;;;;;;;;;;;;3.47;100.00;101841.50;2615178;31;20026;-51
2023/03/05 06:28:50;;;;;;;6.80;3.70;;;;;;;3.50;100.00;101848.47;2615654;36;19939;-50
2023/03/05 06:31:21;;;;;;;9.50;4.25;;;;;;;3.43;100.00;101844.34;2615342;36;20398;-52
2023/03/05 06:33:49;;;;;;;8.60;4.80;;;;;;;3.46;100.00;101841.56;2614521;36;20039;-52
2023/03/05 06:36:20;;;;;;;9.98;4.05;;;;;;;3.57;100.00;101851.75;2616824;31;20029;-53
2023/03/05 06:38:49;;;;;;;9.52;4.95;;;;;;;3.47;100.00;101848.63;2616164;36;20031;-53
2023/03/05 06:41:20;;;;;;;12.27;4.75;;;;;;;3.40;100.00;101844.47;2615540;36;20033;-51
2023/03/05 06:43:51;;;;;;;13.80;5.20;;;;;;;3.47;100.00;101843.28;2615729;36;20531;-58
2023/03/05 06:46:22;;;;;;;7.80;4.70;;;;;;;3.54;100.00;101846.56;2615755;36;20461;-56
2023/03/05 06:48:52;;;;;;;7.13;5.00;;;;;;;3.45;100.00;101848.69;2615290;36;20041;-54
2023/03/05 06:51:23;;;;;;;12.48;5.45;;;;;;;3.61;100.00;101848.03;2616226;36;20126;-51
2023/03/05 06:53:52;;;;;;;9.60;4.88;;;;;;;3.63;100.00;101839.03;2615944;31;20030;-54
2023/03/05 06:56:21;;;;;;;10.02;5.20;;;;;;;3.61;100.00;101845.38;2615178;36;20023;-54
2023/03/05 06:58:53;;;;;;;12.10;5.00;;;;;;;3.70;100.00;101836.97;2616092;36;20042;-52
2023/03/05 07:01:22;;;;;;;8.65;4.78;;;;;;;3.79;100.00;101844.56;2615580;36;20027;-57
2023/03/05 07:03:52;;;;;;;16.60;6.68;;;;;;;3.67;100.00;101843.28;2613426;36;20042;-53
2023/03/05 07:06:20;;;;;;;;;;;;;;;3.85;100.00;101846.09;2614883;36;20038;-55
2023/03/05 07:08:49;;;;;;;9.63;4.83;;;;;;;3.95;100.00;101851.88;2616112;36;19953;-52
2023/03/05 07:11:20;;;;;;;11.48;5.55;;;;;;;3.99;100.00;101850.78;2615202;36;20042;-53
2023/03/05 07:13:52;;;;;;;13.25;5.68;;;;;;;3.99;100.00;101850.78;2615561;36;20041;-50
2023/03/05 07:16:23;;;;;;;6.78;3.45;;;;;;;4.03;100.00;101842.59;2614491;31;20038;-57
2023/03/05 07:18:52;;;;;;;6.53;4.03;;;;;;;4.14;100.00;101839.44;2614846;36;20042;-50
2023/03/05 07:21:22;;;;;;;15.23;3.87;;;;;;;4.06;100.00;101836.25;2615086;36;20034;-52
2023/03/05 07:23:50;;;;;;;5.05;1.92;;;;;;;3.94;100.00;101829.69;2615007;36;20309;-51
2023/03/05 07:26:19;;;;;;;12.15;3.15;;;;;;;4.07;100.00;101830.00;2614629;36;20035;-53
2023/03/05 07:28:48;;;;;;;6.13;2.10;;;;;;;4.13;100.00;101832.38;2616283;31;20030;-55
2023/03/05 07:31:20;;;;;;;8.75;2.20;;;;;;;4.16;100.00;101826.03;2616567;36;20435;-50
2023/03/05 07:33:50;;;;;;;9.35;2.20;;;;;;;4.21;100.00;101822.25;2615231;36;20047;-51
2023/03/05 07:36:19;;;;;;;10.25;2.00;;;;;;;4.21;100.00;101830.22;2615099;36;20049;-51
2023/03/05 07:38:47;;;;;;;4.07;1.90;;;;;;;4.26;100.00;101824.69;2616779;31;20158;-50
2023/03/05 07:41:20;;;;;;;6.63;1.93;;;;;;;4.26;100.00;101830.00;2616471;36;20450;-57
2023/03/05 07:43:50;;;;;;;4.05;2.00;;;;;;;4.45;100.00;101830.00;2616375;36;20049;-49
2023/03/05 07:46:23;;;;;;;;;;;;;;;4.54;100.00;101834.03;2615794;36;20543;-56
2023/03/05 07:48:53;;;;;;;4.63;1.80;;;;;;;4.38;100.00;101828.56;2615906;36;19969;-52
2023/03/05 07:51:22;;;;;;;6.43;1.77;;;;;;;4.47;100.00;101833.47;2616340;36;20451;-51
2023/03/05 07:53:53;;;;;;;8.05;2.30;;;;;;;4.56;100.00;101822.38;2616049;36;20022;-52
2023/03/05 07:56:25;;;;;;;7.13;1.98;;;;;;;4.67;100.00;101823.66;2615046;36;20038;-57
2023/03/05 07:58:54;;;;;;;5.43;1.45;;;;;;;4.67;100.00;101815.66;2616269;36;20033;-53
2023/03/05 08:01:25;;;;;;;3.05;1.48;;;;;;;4.66;100.00;101816.59;2615269;31;20061;-50
2023/03/05 08:03:53;;;;;;;4.60;1.42;;;;;;;4.69;100.00;101813.78;2614994;31;20022;-53
2023/03/05 08:06:22;;;;;;;2.30;1.48;;;;;;;4.69;100.00;101816.44;2614329;36;20038;-53
2023/03/05 08:08:50;;;;;;;3.77;1.20;;;;;;;4.77;100.00;101819.63;2616135;36;20041;-50
2023/03/05 08:11:19;;;;;;;3.13;1.40;;;;;;;4.75;100.00;101821.47;2615448;36;20034;-57
2023/03/05 08:13:47;;;;;;;3.97;1.30;;;;;;;4.80;100.00;101814.13;2616336;36;20069;-52
2023/03/05 08:16:18;;;;;;;6.90;1.38;;;;;;;4.91;100.00;101809.09;2615947;36;20447;-50
2023/03/05 08:18:51;;;;;;;3.35;1.13;;;;;;;4.95;100.00;101809.84;2615839;36;20034;-53
2023/03/05 08:21:20;;;;;;;2.65;1.20;;;;;;;4.96;100.00;101800.00;2616252;36;20038;-52
2023/03/05 08:23:49;;;;;;;4.07;1.13;;;;;;;5.04;100.00;101801.34;2615184;36;20034;-55
2023/03/05 08:26:20;;;;;;;3.35;1.52;;;;;;;5.30;100.00;101799.19;2614107;36;20038;-52
2023/03/05 08:28:48;;;;;;;3.47;1.60;;;;;;;5.20;100.00;101798.78;2615391;36;20550;-49
2023/03/05 08:31:20;;;;;;;2.60;1.23;;;;;;;5.45;100.00;101794.84;2615009;36;20030;-54
2023/03/05 08:33:51;;;;;;;5.72;1.35;;;;;;;5.60;100.00;101798.53;2615794;36;20303;-53
2023/03/05 08:36:19;;;;;;;2.35;1.20;;;;;;;5.57;100.00;101794.22;2615354;36;20031;-54
2023/03/05 08:38:49;;;;;;;1.50;0.95;;;;;;;5.44;100.00;101785.13;2616578;36;20582;-51
2023/03/05 08:41:19;;;;;;;3.67;1.30;;;;;;;5.49;100.00;101780.41;2615749;36;20027;-56
2023/03/05 08:43:47;;;;;;;3.53;1.15;;;;;;;5.81;100.00;101796.50;2615722;36;20034;-52
2023/03/05 08:46:17;;;;;;;3.53;1.20;;;;;;;5.82;100.00;101786.72;2616245;36;20063;-50
2023/03/05 08:48:46;;;;;;;5.75;1.00;;;;;;;5.64;100.00;101786.75;2615563;31;20046;-51
2023/03/05 08:51:18;;;;;;;4.25;1.13;;;;;;;5.80;100.00;101784.13;2616343;36;20431;-57
2023/03/05 08:53:48;;;;;;;4.57;2.40;;;;;;;5.82;100.00;101792.91;2615040;31;20556;-54
2023/03/05 08:56:17;;;;;;;3.78;1.85;;;;;;;5.49;100.00;101788.44;2614547;31;20034;-50
2023/03/05 08:58:47;;;;;;;3.28;1.20;;;;;;;5.72;100.00;101783.66;2615551;36;20035;-54
2023/03/05 09:01:15;;;;;;;;;;;;;;;5.71;100.00;101773.91;2616564;36;20030;-49
2023/03/05 09:03:44;;;;;;;3.63;1.08;;;;;;;5.54;100.00;101772.16;2615615;36;19946;-51
2023/03/05 09:06:13;;;;;;;4.68;1.05;;;;;;;5.58;100.00;101769.25;2614247;36;20034;-52
2023/03/05 09:08:44;;;;;;;4.80;1.35;;;;;;;5.43;100.00;101775.38;2615436;36;20035;-52
2023/03/05 09:11:14;;;;;;;3.17;1.75;;;;;;;5.59;100.00;101768.31;2615487;36;20038;-52
2023/03/05 09:13:43;;;;;;;5.57;0.90;;;;;;;5.86;100.00;101770.44;2615685;36;20030;-57
2023/03/05 09:16:14;;;;;;;3.53;0.93;;;;;;;5.75;100.00;101765.66;2616489;31;20447;-53
2023/03/05 09:18:43;;;;;;;1.90;1.10;;;;;;;5.72;100.00;101759.63;2614988;31;20046;-57
2023/03/05 09:21:13;;;;;;;3.08;1.35;;;;;;;6.02;100.00;101766.94;2615932;36;20046;-49
2023/03/05 09:23:58;;;;;;;3.28;1.13;;;;;;;6.09;100.00;101762.97;2613055;54;20042;-54
2023/03/05 09:26:34;;;;;;;2.95;0.82;;;;;;;5.84;100.00;101764.28;2617915;36;20133;-55
2023/03/05 09:29:02;;;;;;;2.90;1.08;;;;;;;6.00;100.00;101763.50;2614726;36;20611;-54
2023/03/05 09:31:31;;;;;;;3.70;0.90;;;;;;;6.23;100.00;101752.41;2614882;36;20034;-56
2023/03/05 09:33:59;;;;;;;2.15;1.00;;;;;;;6.21;100.00;101751.59;2610911;36;20042;-53
2023/03/05 09:36:30;;;;;;;2.83;0.80;;;;;;;6.27;100.00;101755.75;2614529;36;20439;-52
2023/03/05 09:39:02;;;;;;;1.70;0.80;;;;;;;6.58;100.00;101749.53;2615365;36;20539;-56
2023/03/05 09:41:39;;;;;;;4.32;0.90;;;;;;;6.51;100.00;101750.84;2614354;36;20042;-52
2023/03/05 09:44:19;;;;;;;3.70;0.98;;;;;;;6.88;100.00;101740.66;2615376;36;20030;-57
2023/03/05 09:46:55;;;;;;;2.67;0.98;;;;;;;7.05;100.00;101741.47;2614883;36;20046;-53
2023/03/05 09:49:34;;;;;;;4.45;0.90;;;;;;;7.33;100.00;101733.50;2614925;36;20030;-51
2023/03/05 09:52:08;;;;;;;4.60;1.05;;;;;;;7.24;100.00;101736.72;2613399;36;20038;-54
2023/03/05 09:54:44;;;;;;;3.72;0.90;;;;;;;7.28;100.00;101740.94;2614108;36;20046;-52
2023/03/05 09:57:19;;;;;;;1.13;0.70;;;;;;;6.74;100.00;101732.56;2615344;36;20416;-50
2023/03/05 09:59:51;;;;;;;2.80;1.17;;;;;;;6.56;100.00;101732.69;2615661;36;20570;-59
2023/03/05 10:02:24;;;;;;;1.65;1.15;;;;;;;6.20;100.00;101738.31;2613477;36;20038;-54
2023/03/05 10:04:59;;;;;;;2.00;0.68;;;;;;;6.32;100.00;101730.47;2614701;36;20426;-51
2023/03/05 10:07:31;;;;;;;5.53;1.77;;;;;;;6.41;100.00;101730.91;2615370;31;20039;-51
2023/03/05 10:10:04;;;;;;;2.25;0.90;;;;;;;6.35;100.00;101731.28;2614044;36;20034;-51
2023/03/05 10:12:41;;;;;;;3.03;1.02;;;;;;;6.41;100.00;101725.56;2614739;36;20033;-54
2023/03/05 10:15:14;;;;;;;2.15;1.20;;;;;;;6.50;100.00;101725.03;2615446;36;20034;-55
2023/03/05 10:18:17;;;;;;;2.67;0.93;;;;;;;6.44;100.00;101722.72;2614760;36;20431;-53
2023/03/05 10:21:09;;;;;;;1.63;0.70;;;;;;;6.48;100.00;101721.59;2614822;36;20041;-55
2023/03/05 10:23:53;;;;;;;1.70;0.93;;;;;;;6.63;100.00;101714.50;2613002;36;20038;-57
2023/03/05 10:26:44;;;;;;;2.38;0.73;;;;;;;6.82;100.00;101708.94;2614401;36;20065;-59
2023/03/05 10:29:30;;;;;;;4.38;0.82;;;;;;;7.20;100.00;101713.78;2614907;36;20061;-55
2023/03/05 10:32:10;;;;;;;2.05;0.80;;;;;;;7.36;100.00;101709.22;2614842;31;20441;-53
2023/03/05 10:34:58;;;;;;;2.40;0.90;;;;;;;7.35;100.00;101699.47;2614804;36;20057;-51
2023/03/05 10:37:56;;;;;;;2.70;0.80;;;;;;;7.22;100.00;101698.50;2614680;36;20034;-49
2023/03/05 10:40:32;;;;;;;3.40;1.25;;;;;;;7.13;100.00;101691.88;2612242;36;20129;-55
2023/03/05 10:43:12;;;;;;;1.90;0.70;;;;;;;7.09;100.00;101695.69;2614640;31;20030;-52
2023/03/05 10:45:43;;;;;;;2.97;0.80;;;;;;;6.98;100.00;101692.81;2615705;36;20034;-50
2023/03/05 10:48:17;;;;;;;1.63;0.90;;;;;;;7.14;100.00;101690.94;2614347;36;20039;-57
2023/03/05 10:50:50;;;;;;;4.15;0.93;;;;;;;7.07;100.00;101680.69;2614921;36;20030;-53
2023/03/05 10:53:25;;;;;;;4.15;0.90;;;;;;;7.20;100.00;101681.66;2615117;36;20616;-50
2023/03/05 10:55:55;;;;;;;0.88;0.68;;;;;;;7.21;100.00;101671.81;2614579;36;20085;-48
2023/03/05 10:58:26;;;;;;;;;;;;;;;7.45;100.00;101666.72;2615198;36;20150;-49
2023/03/05 11:01:04;;;;;;;3.47;0.90;;;;;;;7.60;100.00;101664.94;2614790;36;19971;-55
2023/03/05 11:03:49;;;;;;;4.20;0.90;;;;;;;7.85;100.00;101661.56;2613718;36;20061;-51
2023/03/05 11:06:27;;;;;;;4.07;0.90;;;;;;;7.80;100.00;101659.16;2615798;36;20034;-50
2023/03/05 11:08:56;;;;;;;3.15;0.75;;;;;;;7.65;100.00;101658.31;2615648;36;20443;-56
2023/03/05 11:11:25;;;;;;;5.03;1.00;;;;;;;7.80;100.00;101659.16;2616113;36;20424;-53
2023/03/05 11:13:59;;;;;;;4.93;0.88;;;;;;;7.62;100.00;101658.50;2616220;36;20030;-57
2023/03/05 11:16:29;;;;;;;10.63;1.30;;;;;;;7.42;100.00;101653.53;2616541;31;20045;-50
2023/03/05 11:19:22;;;;;;;6.18;0.98;;;;;;;7.53;100.00;101648.38;2615927;36;20045;-57
2023/03/05 11:22:09;;;;;;;6.32;1.00;;;;;;;7.64;100.00;101642.31;2615282;36;20049;-55
2023/03/05 11:24:40;;;;;;;2.25;0.90;;;;;;;7.63;100.00;101636.13;2615260;36;20035;-56
2023/03/05 11:27:25;;;;;;;4.57;0.90;;;;;;;7.80;100.00;101642.22;2616270;54;20043;-51
2023/03/05 11:29:56;;;;;;;1.42;0.70;;;;;;;7.70;100.00;101640.13;2614438;36;20038;-51
2023/03/05 11:32:27;;;;;;;4.65;1.02;;;;;;;7.91;100.00;101628.13;2615136;36;20055;-52
2023/03/05 11:34:56;;;;;;;3.10;0.82;;;;;;;7.95;100.00;101630.50;2614710;36;20061;-53
2023/03/05 11:37:26;;;;;;;;;;;;;;;7.99;100.00;101631.16;2616082;36;20069;-50
2023/03/05 11:40:12;;;;;;;;;;;;;;;7.94;100.00;101618.06;2616205;36;20491;-56
2023/03/05 11:42:41;;;;;;;2.88;0.70;;;;;;;7.94;100.00;101617.22;2614651;36;19954;-51
2023/03/05 11:45:17;;;;;;;3.75;1.00;;;;;;;8.11;100.00;101614.25;2614894;36;20031;-57